createdAt,value
2019-06-01T00:00:37.864Z,17.74
2019-06-01T00:03:09.727Z,17.68
2019-06-01T00:05:40.735Z,17.64
2019-06-01T00:08:11.811Z,17.70
2019-06-01T00:10:43.023Z,17.66
2019-06-01T00:13:14.089Z,17.61
2019-06-01T00:15:46.155Z,17.54
2019-06-01T00:18:17.333Z,17.59
2019-06-01T00:20:48.603Z,17.54
2019-06-01T00:23:19.831Z,17.58
2019-06-01T00:25:50.940Z,17.49
2019-06-01T00:28:22.001Z,17.52
2019-06-01T00:30:53.302Z,17.47
2019-06-01T00:33:24.785Z,17.46
2019-06-01T00:35:56.039Z,17.50
2019-06-01T00:38:27.181Z,17.39
2019-06-01T00:40:58.201Z,17.38
2019-06-01T00:43:30.408Z,17.34
2019-06-01T00:46:01.410Z,17.39
2019-06-01T00:48:32.564Z,17.23
2019-06-01T00:51:03.577Z,17.31
2019-06-01T00:53:34.642Z,17.30
2019-06-01T00:56:05.818Z,17.21
2019-06-01T00:58:37.135Z,17.29
2019-06-01T01:01:08.465Z,17.25
2019-06-01T01:03:39.726Z,17.18
2019-06-01T01:06:10.805Z,17.23
2019-06-01T01:08:41.834Z,17.28
2019-06-01T01:11:12.854Z,17.18
2019-06-01T01:13:45.657Z,17.15
2019-06-01T01:16:17.074Z,17.09
2019-06-01T01:18:48.143Z,17.08
2019-06-01T01:21:19.361Z,17.08
2019-06-01T01:23:50.464Z,16.98
2019-06-01T01:26:22.658Z,17.02
2019-06-01T01:28:54.866Z,16.89
2019-06-01T01:31:26.163Z,16.97
2019-06-01T01:33:57.636Z,17.00
2019-06-01T01:36:28.787Z,16.94
2019-06-01T01:39:00.738Z,16.97
2019-06-01T01:41:33.348Z,17.01
2019-06-01T01:44:04.717Z,16.98
2019-06-01T01:46:35.899Z,16.98
2019-06-01T01:49:07.454Z,16.98
2019-06-01T01:51:39.096Z,16.95
2019-06-01T01:54:10.322Z,17.00
2019-06-01T01:56:41.343Z,16.90
2019-06-01T01:59:12.394Z,16.93
2019-06-01T02:01:43.409Z,16.99
2019-06-01T02:04:14.455Z,16.93
2019-06-01T02:06:46.648Z,16.89
2019-06-01T02:09:17.759Z,16.93
2019-06-01T02:11:48.781Z,16.83
2019-06-01T02:14:20.003Z,16.82
2019-06-01T02:16:51.920Z,16.83
2019-06-01T02:19:23.282Z,16.75
2019-06-01T02:21:54.495Z,16.77
2019-06-01T02:24:25.532Z,16.80
2019-06-01T02:26:57.203Z,16.68
2019-06-01T02:29:28.343Z,16.67
2019-06-01T02:32:01.849Z,16.70
2019-06-01T02:34:33.406Z,16.71
2019-06-01T02:37:04.653Z,16.67
2019-06-01T02:39:35.796Z,16.60
2019-06-01T02:42:08.902Z,16.64
2019-06-01T02:44:39.946Z,16.60
2019-06-01T02:47:11.632Z,16.55
2019-06-01T02:49:42.738Z,16.58
2019-06-01T02:52:14.226Z,16.48
2019-06-01T02:54:45.340Z,16.46
2019-06-01T02:57:16.336Z,16.50
2019-06-01T02:59:47.524Z,16.47
2019-06-01T03:02:18.777Z,16.36
2019-06-01T03:04:50.738Z,16.46
2019-06-01T03:07:22.054Z,16.42
2019-06-01T03:09:53.727Z,16.39
2019-06-01T03:12:27.004Z,16.41
2019-06-01T03:15:00.540Z,16.44
2019-06-01T03:17:35.259Z,16.44
2019-06-01T03:20:08.750Z,16.46
2019-06-01T03:22:42.115Z,16.43
2019-06-01T03:25:15.045Z,16.40
2019-06-01T03:27:47.889Z,16.33
2019-06-01T03:30:37.211Z,16.28
2019-06-01T03:33:10.585Z,16.31
2019-06-01T03:35:41.278Z,16.29
2019-06-01T03:38:12.689Z,16.35
2019-06-01T03:40:43.858Z,16.29
2019-06-01T03:43:16.825Z,16.28
2019-06-01T03:45:47.884Z,16.35
2019-06-01T03:48:19.048Z,16.31
2019-06-01T03:50:50.690Z,16.29
2019-06-01T03:53:21.787Z,16.27
2019-06-01T03:55:52.814Z,16.20
2019-06-01T03:58:23.864Z,16.14
2019-06-01T04:00:54.944Z,16.15
2019-06-01T04:03:26.049Z,16.10
2019-06-01T04:06:16.356Z,16.20
2019-06-01T04:08:47.389Z,16.23
2019-06-01T04:11:18.382Z,16.26
2019-06-01T04:13:50.565Z,16.28
2019-06-01T04:16:21.573Z,16.21
2019-06-01T04:18:52.617Z,16.25
2019-06-01T04:21:23.678Z,16.28
2019-06-01T04:23:54.940Z,16.24
2019-06-01T04:26:25.990Z,16.18
2019-06-01T04:28:57.401Z,16.27
2019-06-01T04:31:28.391Z,16.35
2019-06-01T04:33:59.697Z,16.42
2019-06-01T04:36:31.269Z,16.33
2019-06-01T04:39:03.327Z,16.34
2019-06-01T04:41:34.526Z,16.40
2019-06-01T04:44:06.238Z,16.38
2019-06-01T04:46:37.370Z,16.26
2019-06-01T04:49:08.610Z,16.38
2019-06-01T04:51:40.138Z,16.42
2019-06-01T04:54:11.640Z,16.52
2019-06-01T04:56:43.785Z,16.54
2019-06-01T04:59:15.330Z,16.50
2019-06-01T05:01:46.525Z,16.56
2019-06-01T05:04:17.626Z,16.60
2019-06-01T05:06:48.683Z,16.64
2019-06-01T05:09:19.697Z,16.67
2019-06-01T05:11:50.961Z,16.74
2019-06-01T05:14:21.999Z,16.87
2019-06-01T05:16:53.132Z,16.86
2019-06-01T05:19:24.152Z,16.90
2019-06-01T05:21:55.288Z,16.93
2019-06-01T05:24:26.324Z,17.03
2019-06-01T05:26:58.535Z,17.10
2019-06-01T05:29:29.636Z,17.15
2019-06-01T05:32:01.642Z,17.25
2019-06-01T05:34:32.648Z,17.27
2019-06-01T05:37:03.827Z,17.30
2019-06-01T05:39:35.100Z,17.43
2019-06-01T05:42:06.304Z,17.53
2019-06-01T05:44:37.317Z,17.56
2019-06-01T05:47:08.403Z,17.61
2019-06-01T05:49:39.413Z,17.67
2019-06-01T05:52:10.486Z,17.79
2019-06-01T05:54:41.804Z,17.86
2019-06-01T05:57:12.870Z,17.88
2019-06-01T05:59:43.907Z,17.92
2019-06-01T06:02:15.230Z,17.98
2019-06-01T06:04:46.238Z,18.06
2019-06-01T06:07:17.349Z,18.14
2019-06-01T06:09:48.365Z,18.18
2019-06-01T06:12:19.557Z,18.25
2019-06-01T06:14:51.247Z,18.38
2019-06-01T06:17:24.320Z,18.45
2019-06-01T06:19:54.977Z,18.49
2019-06-01T06:22:26.140Z,18.62
2019-06-01T06:24:57.172Z,18.65
2019-06-01T06:27:28.212Z,18.73
2019-06-01T06:29:59.288Z,18.83
2019-06-01T06:32:31.670Z,18.91
2019-06-01T06:35:02.770Z,19.03
2019-06-01T06:37:34.060Z,19.13
2019-06-01T06:40:06.712Z,19.24
2019-06-01T06:42:37.814Z,19.34
2019-06-01T06:45:10.413Z,19.45
2019-06-01T06:47:41.493Z,19.50
2019-06-01T06:50:17.702Z,19.55
2019-06-01T06:52:49.301Z,19.64
2019-06-01T06:55:20.314Z,19.70
2019-06-01T06:57:51.406Z,19.84
2019-06-01T07:00:22.717Z,19.97
2019-06-01T07:02:53.761Z,20.06
2019-06-01T07:05:25.534Z,20.29
2019-06-01T07:07:56.665Z,20.70
2019-06-01T07:10:28.832Z,20.87
2019-06-01T07:12:59.872Z,21.10
2019-06-01T07:15:32.032Z,21.17
2019-06-01T07:18:03.116Z,21.23
2019-06-01T07:20:34.316Z,21.24
2019-06-01T07:23:05.390Z,21.29
2019-06-01T07:25:36.507Z,21.45
2019-06-01T07:28:07.798Z,21.54
2019-06-01T07:30:49.860Z,21.67
2019-06-01T07:33:11.711Z,21.74
2019-06-01T07:35:42.818Z,21.81
2019-06-01T07:38:13.904Z,21.91
2019-06-01T07:40:45.454Z,21.98
2019-06-01T07:43:16.698Z,22.10
2019-06-01T07:45:47.847Z,22.12
2019-06-01T07:48:19.051Z,22.13
2019-06-01T07:50:51.609Z,22.33
2019-06-01T07:53:24.074Z,22.28
2019-06-01T07:55:55.645Z,22.39
2019-06-01T07:58:26.842Z,22.53
2019-06-01T08:00:58.078Z,22.59
2019-06-01T08:03:32.921Z,22.64
2019-06-01T08:06:03.109Z,22.69
2019-06-01T08:08:34.193Z,22.77
2019-06-01T08:11:05.450Z,23.03
2019-06-01T08:13:36.594Z,23.11
2019-06-01T08:16:07.836Z,23.32
2019-06-01T08:18:39.169Z,23.41
2019-06-01T08:21:10.276Z,23.40
2019-06-01T08:23:41.434Z,23.42
2019-06-01T08:26:13.622Z,23.55
2019-06-01T08:28:44.694Z,23.56
2019-06-01T08:31:15.820Z,23.53
2019-06-01T08:33:47.083Z,23.54
2019-06-01T08:36:18.196Z,23.66
2019-06-01T08:38:49.300Z,23.62
2019-06-01T08:41:20.400Z,23.61
2019-06-01T08:43:51.456Z,23.75
2019-06-01T08:46:23.688Z,23.77
2019-06-01T08:48:54.872Z,23.74
2019-06-01T08:51:26.660Z,23.64
2019-06-01T08:53:58.230Z,23.47
2019-06-01T08:56:30.276Z,23.42
2019-06-01T08:59:02.416Z,23.38
2019-06-01T09:01:34.956Z,23.48
2019-06-01T09:04:06.318Z,23.49
2019-06-01T09:06:37.426Z,23.59
2019-06-01T09:09:11.686Z,23.61
2019-06-01T09:11:41.908Z,23.72
2019-06-01T09:14:13.278Z,23.82
2019-06-01T09:16:44.532Z,24.09
2019-06-01T09:19:15.859Z,24.05
2019-06-01T09:21:46.957Z,24.12
2019-06-01T09:24:18.122Z,24.14
2019-06-01T09:26:49.189Z,24.16
2019-06-01T09:29:20.416Z,24.37
2019-06-01T09:31:51.690Z,24.38
2019-06-01T09:34:22.733Z,24.47
2019-06-01T09:36:55.653Z,24.55
2019-06-01T09:39:26.918Z,24.62
2019-06-01T09:41:57.960Z,24.64
2019-06-01T09:44:31.962Z,24.66
2019-06-01T09:47:02.926Z,24.68
2019-06-01T09:49:34.181Z,24.82
2019-06-01T09:52:05.654Z,24.85
2019-06-01T09:54:38.020Z,24.93
2019-06-01T09:57:09.463Z,24.95
2019-06-01T09:59:40.625Z,24.84
2019-06-01T10:02:12.070Z,24.95
2019-06-01T10:04:43.507Z,25.01
2019-06-01T10:07:14.601Z,25.03
2019-06-01T10:09:45.649Z,25.03
2019-06-01T10:12:16.809Z,25.00
2019-06-01T10:14:47.870Z,25.07
2019-06-01T10:17:18.985Z,25.08
2019-06-01T10:19:50.008Z,25.24
2019-06-01T10:22:21.393Z,25.29
2019-06-01T10:24:52.509Z,25.38
2019-06-01T10:27:23.569Z,25.53
2019-06-01T10:29:54.654Z,25.51
2019-06-01T10:32:25.726Z,25.51
2019-06-01T10:34:56.725Z,25.60
2019-06-01T10:37:27.806Z,25.68
2019-06-01T10:39:58.814Z,25.67
2019-06-01T10:42:32.289Z,25.80
2019-06-01T10:45:02.743Z,25.98
2019-06-01T10:47:33.988Z,26.14
2019-06-01T10:50:05.878Z,26.12
2019-06-01T10:52:38.447Z,26.11
2019-06-01T10:55:11.362Z,26.17
2019-06-01T10:57:42.816Z,26.13
2019-06-01T11:00:14.431Z,26.05
2019-06-01T11:02:45.476Z,26.06
2019-06-01T11:05:16.726Z,25.99
2019-06-01T11:07:47.781Z,25.96
2019-06-01T11:10:19.098Z,25.96
2019-06-01T11:12:50.224Z,25.95
2019-06-01T11:15:21.628Z,25.95
2019-06-01T11:17:52.713Z,25.95
2019-06-01T11:20:23.879Z,26.02
2019-06-01T11:22:54.951Z,26.11
2019-06-01T11:25:26.060Z,26.18
2019-06-01T11:27:57.135Z,26.11
2019-06-01T11:30:28.320Z,26.07
2019-06-01T11:32:59.451Z,26.11
2019-06-01T11:35:30.532Z,26.10
2019-06-01T11:38:03.310Z,26.09
2019-06-01T11:40:34.711Z,26.13
2019-06-01T11:43:06.458Z,26.18
2019-06-01T11:45:38.812Z,26.22
2019-06-01T11:48:10.170Z,26.29
2019-06-01T11:50:41.488Z,26.30
2019-06-01T11:53:12.536Z,26.19
2019-06-01T11:55:43.731Z,26.20
2019-06-01T11:58:14.841Z,26.22
2019-06-01T12:00:45.947Z,26.15
2019-06-01T12:03:17.411Z,26.27
2019-06-01T12:05:48.553Z,26.23
2019-06-01T12:08:19.682Z,26.22
2019-06-01T12:10:52.208Z,26.19
2019-06-01T12:13:23.323Z,26.26
2019-06-01T12:15:54.337Z,26.22
2019-06-01T12:18:25.848Z,26.24
2019-06-01T12:20:56.935Z,26.28
2019-06-01T12:23:28.085Z,26.26
2019-06-01T12:25:59.149Z,26.20
2019-06-01T12:28:30.610Z,26.36
2019-06-01T12:31:02.872Z,26.27
2019-06-01T12:33:34.057Z,26.24
2019-06-01T12:36:05.378Z,26.20
2019-06-01T12:38:52.752Z,26.16
2019-06-01T12:41:25.279Z,26.13
2019-06-01T12:44:15.794Z,26.03
2019-06-01T12:46:47.184Z,26.05
2019-06-01T12:49:18.445Z,26.00
2019-06-01T12:51:49.573Z,26.05
2019-06-01T12:54:20.636Z,26.20
2019-06-01T12:56:53.113Z,26.26
2019-06-01T12:59:24.136Z,26.15
2019-06-01T13:01:55.262Z,26.09
2019-06-01T13:04:26.261Z,26.03
2019-06-01T13:06:57.372Z,26.03
2019-06-01T13:09:28.401Z,26.14
2019-06-01T13:11:59.499Z,26.18
2019-06-01T13:14:30.524Z,26.15
2019-06-01T13:17:07.538Z,26.17
2019-06-01T13:19:43.387Z,26.15
2019-06-01T13:22:14.401Z,26.17
2019-06-01T13:24:45.865Z,26.26
2019-06-01T13:27:17.098Z,26.28
2019-06-01T13:29:48.440Z,26.32
2019-06-01T13:32:19.577Z,26.25
2019-06-01T13:34:51.395Z,26.25
2019-06-01T13:37:22.503Z,26.30
2019-06-01T13:39:57.687Z,26.24
2019-06-01T13:42:26.318Z,26.26
2019-06-01T13:44:57.422Z,26.26
2019-06-01T13:47:28.515Z,26.34
2019-06-01T13:49:59.952Z,26.41
2019-06-01T13:52:30.967Z,26.38
2019-06-01T13:55:02.249Z,26.39
2019-06-01T13:57:33.308Z,26.29
2019-06-01T14:00:06.495Z,26.34
2019-06-01T14:02:37.803Z,26.24
2019-06-01T14:05:09.589Z,26.25
2019-06-01T14:07:40.618Z,26.18
2019-06-01T14:10:12.224Z,26.18
2019-06-01T14:12:43.272Z,26.22
2019-06-01T14:15:15.157Z,26.26
2019-06-01T14:17:46.271Z,26.28
2019-06-01T14:20:17.520Z,26.27
2019-06-01T14:22:49.838Z,26.24
2019-06-01T14:25:21.203Z,26.25
2019-06-01T14:27:54.301Z,26.19
2019-06-01T14:30:25.797Z,26.17
2019-06-01T14:32:57.032Z,26.14
2019-06-01T14:35:28.226Z,26.05
2019-06-01T14:37:59.251Z,26.11
2019-06-01T14:40:30.489Z,26.20
2019-06-01T14:43:01.551Z,26.06
2019-06-01T14:45:32.763Z,26.07
2019-06-01T14:48:04.152Z,26.08
2019-06-01T14:50:36.273Z,26.00
2019-06-01T14:53:07.463Z,25.97
2019-06-01T14:55:38.565Z,26.03
2019-06-01T14:58:09.706Z,25.97
2019-06-01T15:00:40.841Z,25.96
2019-06-01T15:03:12.002Z,25.95
2019-06-01T15:05:43.430Z,25.93
2019-06-01T15:08:14.472Z,25.97
2019-06-01T15:10:45.593Z,25.93
2019-06-01T15:13:16.670Z,25.81
2019-06-01T15:15:49.343Z,25.81
2019-06-01T15:18:20.644Z,25.90
2019-06-01T15:20:53.799Z,25.81
2019-06-01T15:23:24.939Z,25.85
2019-06-01T15:25:56.461Z,25.87
2019-06-01T15:28:27.590Z,25.88
2019-06-01T15:30:59.272Z,25.78
2019-06-01T15:33:31.520Z,25.77
2019-06-01T15:36:02.681Z,25.76
2019-06-01T15:38:33.942Z,25.74
2019-06-01T15:41:05.063Z,25.65
2019-06-01T15:43:36.752Z,25.56
2019-06-01T15:46:07.821Z,25.71
2019-06-01T15:48:38.966Z,25.66
2019-06-01T15:51:11.075Z,25.64
2019-06-01T15:53:42.182Z,25.68
2019-06-01T15:56:13.323Z,25.65
2019-06-01T15:58:52.818Z,25.62
2019-06-01T16:01:17.471Z,25.64
2019-06-01T16:03:48.599Z,25.60
2019-06-01T16:06:19.585Z,25.56
2019-06-01T16:08:50.646Z,25.61
2019-06-01T16:11:21.593Z,25.62
2019-06-01T16:13:53.646Z,25.58
2019-06-01T16:16:24.720Z,25.60
2019-06-01T16:18:59.834Z,25.56
2019-06-01T16:21:28.505Z,25.55
2019-06-01T16:24:00.315Z,25.56
2019-06-01T16:26:31.482Z,25.59
2019-06-01T16:29:03.503Z,25.55
2019-06-01T16:31:36.875Z,25.57
2019-06-01T16:34:08.061Z,25.51
2019-06-01T16:36:40.620Z,25.47
2019-06-01T16:39:11.738Z,25.47
2019-06-01T16:41:43.270Z,25.41
2019-06-01T16:44:14.784Z,25.36
2019-06-01T16:46:46.054Z,25.35
2019-06-01T16:49:17.499Z,25.39
2019-06-01T16:51:59.072Z,25.37
2019-06-01T16:54:31.273Z,25.33
2019-06-01T16:57:05.323Z,25.27
2019-06-01T16:59:38.524Z,25.25
2019-06-01T17:02:09.934Z,25.32
2019-06-01T17:04:44.115Z,25.31
2019-06-01T17:07:15.087Z,25.27
2019-06-01T17:09:46.184Z,25.24
2019-06-01T17:12:17.248Z,25.23
2019-06-01T17:14:49.430Z,25.23
2019-06-01T17:17:20.508Z,25.20
2019-06-01T17:19:51.550Z,25.15
2019-06-01T17:22:22.555Z,25.10
2019-06-01T17:24:53.746Z,25.13
2019-06-01T17:27:24.880Z,25.14
2019-06-01T17:29:55.977Z,25.09
2019-06-01T17:32:26.996Z,25.04
2019-06-01T17:34:58.581Z,24.98
2019-06-01T17:37:29.738Z,24.95
2019-06-01T17:40:02.109Z,24.95
2019-06-01T17:42:33.535Z,24.94
2019-06-01T17:45:06.095Z,24.89
2019-06-01T17:47:40.780Z,24.88
2019-06-01T17:50:11.767Z,24.85
2019-06-01T17:52:43.887Z,24.81
2019-06-01T17:55:36.210Z,24.78
2019-06-01T17:58:09.774Z,24.76
2019-06-01T18:00:40.939Z,24.70
2019-06-01T18:03:13.069Z,24.70
2019-06-01T18:05:44.578Z,24.71
2019-06-01T18:08:15.749Z,24.69
2019-06-01T18:10:54.158Z,24.70
2019-06-01T18:13:20.196Z,24.65
2019-06-01T18:16:10.509Z,24.61
2019-06-01T18:18:41.876Z,24.57
2019-06-01T18:21:13.043Z,24.55
2019-06-01T18:23:44.235Z,24.52
2019-06-01T18:26:15.433Z,24.50
2019-06-01T18:28:46.542Z,24.49
2019-06-01T18:31:17.622Z,24.45
2019-06-01T18:33:48.755Z,24.41
2019-06-01T18:36:20.017Z,24.39
2019-06-01T18:38:51.180Z,24.37
2019-06-01T18:41:22.514Z,24.29
2019-06-01T18:43:53.556Z,24.27
2019-06-01T18:46:24.649Z,24.23
2019-06-01T18:48:55.809Z,24.18
2019-06-01T18:51:26.893Z,24.12
2019-06-01T18:53:57.892Z,24.09
2019-06-01T18:56:28.915Z,24.06
2019-06-01T18:59:00.002Z,24.01
2019-06-01T19:01:31.404Z,23.98
2019-06-01T19:04:02.517Z,23.93
2019-06-01T19:06:33.646Z,23.87
2019-06-01T19:09:07.232Z,23.84
2019-06-01T19:11:38.279Z,23.78
2019-06-01T19:14:09.833Z,23.74
2019-06-01T19:16:41.181Z,23.70
2019-06-01T19:19:12.669Z,23.66
2019-06-01T19:21:43.721Z,23.58
2019-06-01T19:24:14.788Z,23.54
2019-06-01T19:26:45.809Z,23.50
2019-06-01T19:29:16.996Z,23.45
2019-06-01T19:31:48.063Z,23.38
2019-06-01T19:34:19.128Z,23.32
2019-06-01T19:36:53.738Z,23.27
2019-06-01T19:39:25.216Z,23.20
2019-06-01T19:41:56.329Z,23.13
2019-06-01T19:44:27.538Z,23.05
2019-06-01T19:46:58.573Z,22.98
2019-06-01T19:49:29.631Z,22.94
2019-06-01T19:52:00.679Z,22.87
2019-06-01T19:54:31.696Z,22.80
2019-06-01T19:57:02.762Z,22.74
2019-06-01T19:59:33.784Z,22.68
2019-06-01T20:02:22.653Z,22.63
2019-06-01T20:04:37.850Z,22.59
2019-06-01T20:07:08.873Z,22.49
2019-06-01T20:09:39.916Z,22.43
2019-06-01T20:12:14.754Z,22.36
2019-06-01T20:14:43.629Z,22.30
2019-06-01T20:17:15.661Z,22.27
2019-06-01T20:19:47.105Z,22.21
2019-06-01T20:22:19.038Z,22.16
2019-06-01T20:24:50.240Z,22.14
2019-06-01T20:27:21.872Z,22.11
2019-06-01T20:29:53.691Z,22.05
2019-06-01T20:32:24.742Z,22.00
2019-06-01T20:34:55.859Z,21.99
2019-06-01T20:37:29.007Z,21.97
2019-06-01T20:40:00.035Z,21.86
2019-06-01T20:42:32.866Z,21.75
2019-06-01T20:45:05.064Z,21.73
2019-06-01T20:47:36.654Z,21.64
2019-06-01T20:50:10.702Z,21.60
2019-06-01T20:52:41.735Z,21.51
2019-06-01T20:55:13.494Z,21.43
2019-06-01T20:57:44.498Z,21.33
2019-06-01T21:00:17.804Z,21.30
2019-06-01T21:02:49.064Z,21.22
2019-06-01T21:05:20.236Z,21.15
2019-06-01T21:07:51.299Z,21.13
2019-06-01T21:10:24.110Z,21.12
2019-06-01T21:12:55.300Z,21.06
2019-06-01T21:15:27.685Z,21.04
2019-06-01T21:17:58.723Z,21.01
2019-06-01T21:20:30.170Z,20.95
2019-06-01T21:23:01.201Z,20.86
2019-06-01T21:25:32.295Z,20.87
2019-06-01T21:28:03.357Z,20.82
2019-06-01T21:30:34.370Z,20.85
2019-06-01T21:33:05.384Z,20.83
2019-06-01T21:35:36.456Z,20.79
2019-06-01T21:38:08.027Z,20.80
2019-06-01T21:40:39.405Z,20.80
2019-06-01T21:43:23.510Z,20.73
2019-06-01T21:45:43.216Z,20.70
2019-06-01T21:48:15.545Z,20.65
2019-06-01T21:50:46.635Z,20.64
2019-06-01T21:53:17.936Z,20.65
2019-06-01T21:55:49.066Z,20.60
2019-06-01T21:58:21.052Z,20.53
2019-06-01T22:00:53.868Z,20.50
2019-06-01T22:03:27.250Z,20.45
2019-06-01T22:05:58.700Z,20.44
2019-06-01T22:08:29.697Z,20.44
2019-06-01T22:11:00.702Z,20.46
2019-06-01T22:13:31.696Z,20.49
2019-06-01T22:16:02.711Z,20.48
2019-06-01T22:18:33.786Z,20.47
2019-06-01T22:21:04.870Z,20.43
2019-06-01T22:23:35.845Z,20.45
2019-06-01T22:26:08.171Z,20.38
2019-06-01T22:28:39.196Z,20.27
2019-06-01T22:31:10.217Z,20.21
2019-06-01T22:33:41.289Z,20.19
2019-06-01T22:36:12.356Z,20.19
2019-06-01T22:38:43.425Z,20.10
2019-06-01T22:41:14.618Z,20.05
2019-06-01T22:43:47.063Z,20.02
2019-06-01T22:46:18.311Z,19.96
2019-06-01T22:48:49.390Z,19.98
2019-06-01T22:51:20.834Z,19.96
2019-06-01T22:53:52.000Z,19.95
2019-06-01T22:56:23.238Z,19.89
2019-06-01T22:58:54.287Z,19.90
2019-06-01T23:01:25.293Z,19.91
2019-06-01T23:03:56.357Z,19.84
2019-06-01T23:06:29.250Z,19.84
2019-06-01T23:09:00.398Z,19.77
2019-06-01T23:11:31.810Z,19.72
2019-06-01T23:14:02.840Z,19.66
2019-06-01T23:16:33.871Z,19.73
2019-06-01T23:19:05.052Z,19.66
2019-06-01T23:21:36.053Z,19.68
2019-06-01T23:24:08.444Z,19.62
2019-06-01T23:26:39.711Z,19.57
2019-06-01T23:29:10.702Z,19.57
2019-06-01T23:31:41.799Z,19.54
2019-06-01T23:34:13.196Z,19.55
2019-06-01T23:36:44.282Z,19.55
2019-06-01T23:39:15.341Z,19.53
2019-06-01T23:41:46.389Z,19.52
2019-06-01T23:44:17.501Z,19.46
2019-06-01T23:46:48.518Z,19.46
2019-06-01T23:49:19.662Z,19.44
2019-06-01T23:51:50.663Z,19.46
2019-06-01T23:54:21.657Z,19.38
2019-06-01T23:56:53.004Z,19.39
2019-06-01T23:59:24.120Z,19.38
